Time;durP1;ratioP1;P1;durP2;ratioP2;P2;SDS_P1;SDS_P2;PMS_P1;PMS_P2;Temp;Humidity;BMP_temperature;BMP_pressure;BME280_temperature;BME280_humidity;BME280_pressure;Samples;Min_cycle;Max_cycle;Signal;HPM_P1;HPM_P2
2022/06/12 00:00:28;;;;;;;;;;;26.60;48.30;;;;;;5054289;28;19911;-63
2022/06/12 00:02:54;;;;;;;;;;;26.60;48.20;;;;;;5052853;28;20047;-63
2022/06/12 00:05:20;;;;;;;;;;;26.60;48.10;;;;;;5053360;28;20017;-62
2022/06/12 00:07:45;;;;;;;;;;;26.60;48.10;;;;;;5053700;28;20291;-63
2022/06/12 00:10:11;;;;;;;;;;;26.60;48.10;;;;;;5054441;28;19913;-63
2022/06/12 00:12:37;;;;;;;;;;;26.60;48.00;;;;;;5054424;28;19925;-63
2022/06/12 00:15:02;;;;;;;;;;;26.60;48.10;;;;;;5054407;28;19963;-63
2022/06/12 00:17:28;;;;;;;;;;;26.60;48.00;;;;;;5054298;28;19909;-63
2022/06/12 00:19:53;;;;;;;;;;;26.60;47.90;;;;;;5054298;28;19912;-63
2022/06/12 00:22:19;;;;;;;;;;;26.60;47.80;;;;;;5054188;28;20079;-63
2022/06/12 00:24:44;;;;;;;;;;;26.60;47.80;;;;;;5054260;28;19909;-63
2022/06/12 00:27:10;;;;;;;;;;;26.60;47.80;;;;;;5054271;28;19909;-63
2022/06/12 00:29:35;;;;;;;;;;;26.60;47.80;;;;;;5052820;28;19958;-63
2022/06/12 00:32:02;;;;;;;;;;;26.60;47.80;;;;;;5052826;28;20027;-63
2022/06/12 00:34:29;;;;;;;;;;;26.60;48.10;;;;;;5052826;28;19909;-63
2022/06/12 00:36:55;;;;;;;;;;;26.60;47.90;;;;;;5052740;28;19913;-63
2022/06/12 00:39:20;;;;;;;;;;;26.60;48.00;;;;;;5052607;28;20376;-63
2022/06/12 00:41:46;;;;;;;;;;;26.60;48.20;;;;;;5052792;28;19908;-63
2022/06/12 00:44:13;;;;;;;;;;;26.50;48.00;;;;;;5053757;28;19912;-63
2022/06/12 00:46:39;;;;;;;;;;;26.50;48.10;;;;;;5054994;28;19913;-63
2022/06/12 00:49:12;;;;;;;;;;;26.50;47.90;;;;;;5073654;28;19908;-63
2022/06/12 00:51:37;;;;;;;;;;;26.50;48.10;;;;;;5055811;28;19912;-63
2022/06/12 00:54:03;;;;;;;;;;;26.50;48.10;;;;;;5073572;28;20333;-63
2022/06/12 00:56:32;;;;;;;;;;;26.50;48.10;;;;;;5073646;28;19908;-63
2022/06/12 00:59:05;;;;;;;;;;;26.50;48.30;;;;;;5055601;28;19908;-63
2022/06/12 01:01:38;;;;;;;;;;;26.50;47.80;;;;;;5055675;28;19908;-63
2022/06/12 01:06:48;;;;;;;;;;;26.50;48.00;;;;;;5058310;28;19950;-63
2022/06/12 01:09:15;;;;;;;;;;;26.50;48.00;;;;;;5055413;28;19909;-63
2022/06/12 01:11:41;;;;;;;;;;;26.50;47.80;;;;;;5055411;28;19962;-63
2022/06/12 01:14:07;;;;;;;;;;;26.50;47.80;;;;;;5055156;28;19912;-63
2022/06/12 01:16:33;;;;;;;;;;;26.50;47.70;;;;;;5055491;28;19908;-63
2022/06/12 01:18:58;;;;;;;;;;;26.50;48.00;;;;;;5055335;28;20372;-63
2022/06/12 01:21:33;;;;;;;;;;;26.50;48.10;;;;;;5073224;28;19984;-63
2022/06/12 01:24:17;;;;;;;;;;;26.50;47.70;;;;;;5073096;28;19908;-63
2022/06/12 01:26:49;;;;;;;;;;;26.50;47.80;;;;;;5073264;28;19916;-63
2022/06/12 01:29:34;;;;;;;;;;;26.50;47.80;;;;;;5055253;28;19916;-63
2022/06/12 01:32:12;;;;;;;;;;;26.50;47.60;;;;;;5041613;28;20011;-63
2022/06/12 01:34:45;;;;;;;;;;;26.50;47.70;;;;;;5055446;28;20394;-63
2022/06/12 01:37:40;;;;;;;;;;;26.50;47.80;;;;;;5055122;28;19916;-63
2022/06/12 01:40:15;;;;;;;;;;;26.40;47.60;;;;;;5059818;28;20383;-63
2022/06/12 01:42:46;;;;;;;;;;;26.50;47.50;;;;;;5073012;28;19915;-63
2022/06/12 01:45:14;;;;;;;;;;;26.40;47.70;;;;;;5054988;28;19913;-63
2022/06/12 01:47:52;;;;;;;;;;;26.40;47.70;;;;;;5072919;28;20372;-63
2022/06/12 01:50:18;;;;;;;;;;;26.40;47.60;;;;;;5072912;28;20284;-63
2022/06/12 01:52:59;;;;;;;;;;;26.40;47.50;;;;;;5054952;28;19916;-63
2022/06/12 01:55:34;;;;;;;;;;;26.40;47.40;;;;;;5054958;28;20003;-63
2022/06/12 01:58:06;;;;;;;;;;;26.40;47.50;;;;;;5073132;28;19909;-63
2022/06/12 02:00:32;;;;;;;;;;;26.40;47.60;;;;;;5072003;28;19973;-63
2022/06/12 02:02:59;;;;;;;;;;;26.40;47.70;;;;;;5054896;28;19909;-63
2022/06/12 02:05:27;;;;;;;;;;;26.40;47.70;;;;;;5054928;28;19909;-64
2022/06/12 02:07:55;;;;;;;;;;;26.40;47.60;;;;;;5072857;28;19975;-63
2022/06/12 02:10:24;;;;;;;;;;;26.40;47.60;;;;;;5054745;28;19915;-63
2022/06/12 02:15:55;;;;;;;;;;;26.30;47.30;;;;;;5057580;28;20383;-63
2022/06/12 02:18:30;;;;;;;;;;;26.30;47.40;;;;;;5054754;28;20331;-63
2022/06/12 02:21:01;;;;;;;;;;;26.30;47.40;;;;;;5072702;28;20386;-63
2022/06/12 02:23:29;;;;;;;;;;;26.30;47.40;;;;;;5072579;28;19915;-63
2022/06/12 02:25:55;;;;;;;;;;;26.30;47.40;;;;;;5057782;28;20300;-64
2022/06/12 02:28:23;;;;;;;;;;;26.30;47.30;;;;;;5058640;28;19912;-64
2022/06/12 02:30:50;;;;;;;;;;;26.20;47.30;;;;;;5058657;28;20372;-63
2022/06/12 02:33:16;;;;;;;;;;;26.30;47.60;;;;;;5058421;28;19912;-63
2022/06/12 02:35:44;;;;;;;;;;;26.30;47.40;;;;;;5076276;28;19919;-64
2022/06/12 02:38:12;;;;;;;;;;;26.30;47.40;;;;;;5076071;28;19908;-63
2022/06/12 02:40:38;;;;;;;;;;;26.20;47.50;;;;;;5076267;28;20383;-63
2022/06/12 02:43:09;;;;;;;;;;;26.20;47.40;;;;;;5058325;28;19942;-63
2022/06/12 02:45:37;;;;;;;;;;;26.20;47.60;;;;;;5058194;28;19997;-63
2022/06/12 02:48:03;;;;;;;;;;;26.20;47.50;;;;;;5058141;28;20011;-63
2022/06/12 02:50:39;;;;;;;;;;;26.20;47.60;;;;;;5076012;28;20269;-63
2022/06/12 02:53:19;;;;;;;;;;;26.20;47.70;;;;;;5058001;28;19912;-63
2022/06/12 02:55:54;;;;;;;;;;;26.20;47.30;;;;;;5082677;28;19908;-63
2022/06/12 02:58:29;;;;;;;;;;;26.20;47.40;;;;;;5058409;28;19908;-63
2022/06/12 03:00:55;;;;;;;;;;;26.20;47.40;;;;;;5075777;28;20437;-64
2022/06/12 03:03:21;;;;;;;;;;;26.20;47.40;;;;;;5057798;28;19912;-64
2022/06/12 03:05:50;;;;;;;;;;;26.20;47.40;;;;;;5075798;28;19999;-64
2022/06/12 03:08:16;;;;;;;;;;;26.20;47.40;;;;;;5091127;28;19952;-64
2022/06/12 03:10:45;;;;;;;;;;;26.20;47.50;;;;;;5074408;28;20295;-63
2022/06/12 03:13:11;;;;;;;;;;;26.20;47.50;;;;;;5057683;28;19917;-64
2022/06/12 03:15:36;;;;;;;;;;;26.10;47.60;;;;;;5075550;28;19916;-64
2022/06/12 03:18:02;;;;;;;;;;;26.10;47.60;;;;;;5057551;28;19913;-63
2022/06/12 03:20:30;;;;;;;;;;;26.10;47.60;;;;;;5057641;28;19916;-63
2022/06/12 03:22:59;;;;;;;;;;;26.10;47.50;;;;;;5057612;28;19916;-63
2022/06/12 03:25:27;;;;;;;;;;;26.10;47.70;;;;;;5057489;28;19908;-63
2022/06/12 03:27:56;;;;;;;;;;;26.10;47.80;;;;;;5090836;28;19908;-63
2022/06/12 03:30:21;;;;;;;;;;;26.00;47.50;;;;;;5075262;28;19908;-63
2022/06/12 03:33:02;;;;;;;;;;;26.00;47.60;;;;;;5075145;28;19920;-63
2022/06/12 03:35:31;;;;;;;;;;;26.00;47.60;;;;;;5074900;28;19997;-63
2022/06/12 03:38:05;;;;;;;;;;;26.00;47.70;;;;;;5057170;28;19913;-63
2022/06/12 03:40:37;;;;;;;;;;;26.00;47.70;;;;;;5075172;28;19999;-63
2022/06/12 03:43:05;;;;;;;;;;;26.00;47.60;;;;;;5075048;28;19913;-63
2022/06/12 03:45:33;;;;;;;;;;;26.00;47.70;;;;;;5075101;28;19909;-63
2022/06/12 03:47:59;;;;;;;;;;;26.00;47.80;;;;;;5056873;28;20036;-63
2022/06/12 03:50:43;;;;;;;;;;;26.00;47.80;;;;;;5074849;28;20449;-63
2022/06/12 03:53:16;;;;;;;;;;;25.90;47.80;;;;;;5074721;28;19912;-62
2022/06/12 03:58:32;;;;;;;;;;;25.90;47.80;;;;;;5074904;28;20414;-63
2022/06/12 04:00:57;;;;;;;;;;;25.90;47.80;;;;;;5056877;28;19916;-63
2022/06/12 04:03:33;;;;;;;;;;;25.90;47.90;;;;;;5056702;28;20317;-63
2022/06/12 04:06:06;;;;;;;;;;;25.90;47.80;;;;;;5074634;28;20364;-63
2022/06/12 04:08:39;;;;;;;;;;;25.90;47.90;;;;;;5056754;28;19950;-63
2022/06/12 04:11:05;;;;;;;;;;;25.90;48.00;;;;;;5056605;28;19961;-63
2022/06/12 04:13:31;;;;;;;;;;;25.90;47.80;;;;;;5056591;28;19913;-63
2022/06/12 04:16:17;;;;;;;;;;;25.90;47.80;;;;;;5056777;28;19915;-63
2022/06/12 04:18:42;;;;;;;;;;;25.90;47.80;;;;;;5066743;28;20392;-63
2022/06/12 04:21:10;;;;;;;;;;;25.90;47.90;;;;;;5074236;28;19908;-63
2022/06/12 04:23:39;;;;;;;;;;;25.90;47.80;;;;;;5056390;28;20410;-63
2022/06/12 04:26:11;;;;;;;;;;;25.90;47.80;;;;;;5074109;28;19909;-63
2022/06/12 04:28:38;;;;;;;;;;;25.90;47.80;;;;;;5056259;28;19908;-63
2022/06/12 04:31:05;;;;;;;;;;;25.90;47.90;;;;;;5074099;28;20432;-63
2022/06/12 04:33:49;;;;;;;;;;;25.90;47.80;;;;;;5056204;28;19962;-64
2022/06/12 04:36:15;;;;;;;;;;;25.90;47.70;;;;;;5073931;28;19909;-63
2022/06/12 04:38:40;;;;;;;;;;;25.90;47.70;;;;;;5073804;28;19909;-63
2022/06/12 04:41:06;;;;;;;;;;;25.90;47.60;;;;;;5073898;28;19916;-63
2022/06/12 04:43:32;;;;;;;;;;;25.90;48.40;;;;;;5072622;28;19960;-63
2022/06/12 04:45:57;;;;;;;;;;;25.90;47.80;;;;;;5073877;28;19958;-63
2022/06/12 04:48:35;;;;;;;;;;;25.90;47.80;;;;;;5055274;28;19947;-63
2022/06/12 04:51:01;;;;;;;;;;;25.90;47.80;;;;;;5055985;28;19931;-63
2022/06/12 04:53:26;;;;;;;;;;;25.90;47.80;;;;;;5073518;28;19912;-63
2022/06/12 04:55:52;;;;;;;;;;;25.90;47.70;;;;;;5072425;28;19916;-63
2022/06/12 04:58:17;;;;;;;;;;;25.90;47.70;;;;;;5073615;28;20383;-62
2022/06/12 05:00:43;;;;;;;;;;;25.90;47.80;;;;;;5073576;28;19908;-63
2022/06/12 05:03:08;;;;;;;;;;;25.90;47.80;;;;;;5055537;28;19908;-63
2022/06/12 05:05:34;;;;;;;;;;;25.90;47.90;;;;;;5073456;28;20253;-63
2022/06/12 05:07:59;;;;;;;;;;;25.80;47.80;;;;;;5073708;28;19939;-63
2022/06/12 05:10:24;;;;;;;;;;;25.90;47.80;;;;;;5073250;28;19908;-63
2022/06/12 05:12:50;;;;;;;;;;;25.90;47.80;;;;;;5073306;28;20002;-63
2022/06/12 05:15:15;;;;;;;;;;;25.90;47.80;;;;;;5073325;28;19943;-63
2022/06/12 05:17:42;;;;;;;;;;;25.90;47.80;;;;;;5073370;28;19916;-63
2022/06/12 05:20:08;;;;;;;;;;;25.90;47.80;;;;;;5073276;28;19909;-63
2022/06/12 05:22:33;;;;;;;;;;;25.90;47.80;;;;;;5055304;28;19961;-63
2022/06/12 05:24:58;;;;;;;;;;;25.90;47.90;;;;;;5073177;28;19915;-63
2022/06/12 05:27:24;;;;;;;;;;;25.80;48.00;;;;;;5073164;28;19916;-64
2022/06/12 05:29:50;;;;;;;;;;;25.80;48.10;;;;;;5088761;28;19908;-64
2022/06/12 05:32:16;;;;;;;;;;;25.80;48.10;;;;;;5055139;28;19963;-63
2022/06/12 05:34:42;;;;;;;;;;;25.80;48.20;;;;;;5073134;28;20292;-63
2022/06/12 05:37:08;;;;;;;;;;;25.80;48.20;;;;;;5055235;28;19908;-63
2022/06/12 05:39:33;;;;;;;;;;;25.80;48.20;;;;;;5073235;28;19916;-63
2022/06/12 05:41:58;;;;;;;;;;;25.80;48.20;;;;;;5088602;28;19932;-63
2022/06/12 05:44:24;;;;;;;;;;;25.80;48.20;;;;;;5072924;28;20002;-63
2022/06/12 05:46:50;;;;;;;;;;;25.80;48.20;;;;;;5072943;28;19920;-63
2022/06/12 05:49:15;;;;;;;;;;;25.80;48.20;;;;;;5072901;28;19909;-63
2022/06/12 05:51:41;;;;;;;;;;;25.80;48.20;;;;;;5072786;28;20344;-63
2022/06/12 05:54:07;;;;;;;;;;;25.80;48.20;;;;;;5072915;28;19908;-63
2022/06/12 05:56:33;;;;;;;;;;;25.80;48.30;;;;;;5055146;28;19938;-63
2022/06/12 05:58:59;;;;;;;;;;;25.80;48.30;;;;;;5072937;28;19931;-63
2022/06/12 06:01:25;;;;;;;;;;;25.70;48.30;;;;;;5059260;28;20346;-63
2022/06/12 06:03:51;;;;;;;;;;;25.70;48.40;;;;;;5076895;28;19908;-63
2022/06/12 06:06:20;;;;;;;;;;;25.80;48.30;;;;;;5059227;28;20253;-63
2022/06/12 06:08:46;;;;;;;;;;;25.70;48.30;;;;;;5076776;28;19914;-63
2022/06/12 06:11:11;;;;;;;;;;;25.70;48.40;;;;;;5058798;28;20367;-63
2022/06/12 06:13:37;;;;;;;;;;;25.70;48.30;;;;;;5076670;28;19913;-63
2022/06/12 06:16:02;;;;;;;;;;;25.70;48.40;;;;;;5076837;28;19971;-63
2022/06/12 06:18:28;;;;;;;;;;;25.70;48.50;;;;;;5076840;28;20356;-63
2022/06/12 06:20:53;;;;;;;;;;;25.70;48.30;;;;;;5076619;28;20359;-63
2022/06/12 06:23:19;;;;;;;;;;;25.70;48.30;;;;;;5058656;28;20365;-63
2022/06/12 06:25:44;;;;;;;;;;;25.70;48.30;;;;;;5058640;28;20424;-63
2022/06/12 06:28:10;;;;;;;;;;;25.80;48.10;;;;;;5076417;28;19971;-63
2022/06/12 06:30:35;;;;;;;;;;;25.70;47.90;;;;;;5076536;28;19974;-63
2022/06/12 06:33:01;;;;;;;;;;;25.70;48.10;;;;;;5076251;28;20269;-63
2022/06/12 06:35:26;;;;;;;;;;;25.70;48.00;;;;;;5076189;28;20332;-63
2022/06/12 06:37:52;;;;;;;;;;;25.80;48.00;;;;;;5058363;28;19912;-63
2022/06/12 06:40:18;;;;;;;;;;;25.80;47.90;;;;;;5076185;28;19931;-63
2022/06/12 06:42:43;;;;;;;;;;;25.70;48.00;;;;;;5091762;28;20042;-64
2022/06/12 06:47:54;;;;;;;;;;;25.70;48.10;;;;;;5076165;28;19927;-64
2022/06/12 06:50:20;;;;;;;;;;;25.70;47.90;;;;;;5058139;28;19908;-63
2022/06/12 06:52:45;;;;;;;;;;;25.70;47.90;;;;;;5075922;28;19913;-63
2022/06/12 06:55:11;;;;;;;;;;;25.70;48.00;;;;;;5076000;28;19951;-63
2022/06/12 06:57:37;;;;;;;;;;;25.70;47.90;;;;;;5058098;28;20304;-63
2022/06/12 07:00:03;;;;;;;;;;;25.70;47.80;;;;;;5075934;28;19988;-63
2022/06/12 07:02:28;;;;;;;;;;;25.80;47.90;;;;;;5075624;28;19963;-63
2022/06/12 07:04:54;;;;;;;;;;;25.80;47.90;;;;;;5075754;28;19909;-63
2022/06/12 07:07:19;;;;;;;;;;;25.80;47.80;;;;;;5075711;28;19908;-63
2022/06/12 07:09:45;;;;;;;;;;;25.90;47.70;;;;;;5075314;28;19908;-62
2022/06/12 07:12:10;;;;;;;;;;;25.90;47.80;;;;;;5075134;28;19919;-63
2022/06/12 07:14:36;;;;;;;;;;;25.80;47.60;;;;;;5075638;28;19957;-63
2022/06/12 07:17:01;;;;;;;;;;;25.80;47.60;;;;;;5075599;28;19909;-63
2022/06/12 07:19:26;;;;;;;;;;;25.90;47.50;;;;;;5075509;28;19908;-63
2022/06/12 07:21:52;;;;;;;;;;;25.80;47.30;;;;;;5075476;28;19919;-63
2022/06/12 07:24:18;;;;;;;;;;;25.90;47.40;;;;;;5075316;28;19932;-63
2022/06/12 07:26:43;;;;;;;;;;;25.90;47.40;;;;;;5057438;28;19908;-62
2022/06/12 07:29:09;;;;;;;;;;;25.80;47.50;;;;;;5090976;28;19999;-63
2022/06/12 07:31:35;;;;;;;;;;;25.80;48.20;;;;;;5057359;28;20344;-63
2022/06/12 07:34:00;;;;;;;;;;;25.90;47.50;;;;;;5075209;28;19915;-63
2022/06/12 07:36:26;;;;;;;;;;;25.80;47.50;;;;;;5057295;28;19916;-64
2022/06/12 07:38:51;;;;;;;;;;;25.80;47.60;;;;;;5057258;28;19908;-64
2022/06/12 07:41:17;;;;;;;;;;;25.80;47.70;;;;;;5057245;28;19956;-63
2022/06/12 07:43:43;;;;;;;;;;;25.80;47.70;;;;;;5057380;28;19987;-63
2022/06/12 07:46:09;;;;;;;;;;;25.80;47.60;;;;;;5073777;28;19951;-63
2022/06/12 07:48:35;;;;;;;;;;;25.80;47.90;;;;;;5057039;28;19947;-63
2022/06/12 07:51:01;;;;;;;;;;;25.80;47.90;;;;;;5056918;28;19909;-62
2022/06/12 07:53:27;;;;;;;;;;;25.80;47.60;;;;;;5074664;28;19912;-64
2022/06/12 07:55:52;;;;;;;;;;;25.90;47.50;;;;;;5057310;28;19969;-64
2022/06/12 07:58:18;;;;;;;;;;;25.90;47.20;;;;;;5074668;28;20342;-64
2022/06/12 08:00:44;;;;;;;;;;;26.00;47.20;;;;;;5056829;28;19916;-63
2022/06/12 08:03:10;;;;;;;;;;;26.00;47.10;;;;;;5074576;28;19987;-63
2022/06/12 08:05:35;;;;;;;;;;;26.10;47.30;;;;;;5073396;28;19962;-63
2022/06/12 08:08:01;;;;;;;;;;;26.10;47.00;;;;;;5074462;28;19956;-63
2022/06/12 08:10:26;;;;;;;;;;;26.10;46.80;;;;;;5074416;28;19909;-63
2022/06/12 08:12:52;;;;;;;;;;;26.10;47.00;;;;;;5074636;28;19916;-63
2022/06/12 08:15:20;;;;;;;;;;;26.20;46.90;;;;;;5074524;28;19909;-63
2022/06/12 08:17:45;;;;;;;;;;;26.10;47.00;;;;;;5056649;28;19915;-63
2022/06/12 08:20:30;;;;;;;;;;;26.00;47.00;;;;;;5074243;28;20319;-63
2022/06/12 08:22:57;;;;;;;;;;;26.00;46.80;;;;;;5073460;28;19908;-63
2022/06/12 08:25:23;;;;;;;;;;;26.10;46.40;;;;;;5056481;28;19934;-63
2022/06/12 08:27:48;;;;;;;;;;;26.00;46.20;;;;;;5056415;28;19909;-63
2022/06/12 08:30:14;;;;;;;;;;;26.10;46.50;;;;;;5074025;28;19914;-63
2022/06/12 08:32:40;;;;;;;;;;;26.00;46.60;;;;;;5074043;28;19952;-63
2022/06/12 08:35:06;;;;;;;;;;;26.10;46.50;;;;;;5056134;28;20391;-63
2022/06/12 08:37:33;;;;;;;;;;;26.10;46.70;;;;;;5074247;28;19919;-63
2022/06/12 08:39:59;;;;;;;;;;;26.10;46.70;;;;;;5055843;28;19908;-63
2022/06/12 08:42:27;;;;;;;;;;;26.10;46.40;;;;;;5073776;28;19912;-63
2022/06/12 08:44:54;;;;;;;;;;;26.10;46.30;;;;;;5056107;28;20279;-63
2022/06/12 08:47:23;;;;;;;;;;;26.10;46.50;;;;;;5055804;28;20498;-63
2022/06/12 08:49:50;;;;;;;;;;;26.20;46.10;;;;;;5073683;28;19915;-63
2022/06/12 08:52:15;;;;;;;;;;;26.20;46.20;;;;;;5055688;28;19994;-63
2022/06/12 08:54:46;;;;;;;;;;;26.20;46.30;;;;;;5073652;28;19908;-63
2022/06/12 08:57:16;;;;;;;;;;;26.20;46.10;;;;;;5089150;28;19909;-63
2022/06/12 08:59:45;;;;;;;;;;;26.20;46.40;;;;;;5055770;28;19943;-63
2022/06/12 09:02:21;;;;;;;;;;;26.20;46.40;;;;;;5055615;28;19935;-63
2022/06/12 09:04:47;;;;;;;;;;;26.10;46.40;;;;;;5073684;28;19912;-63
2022/06/12 09:07:13;;;;;;;;;;;26.20;46.30;;;;;;5073445;28;19912;-63
2022/06/12 09:09:48;;;;;;;;;;;26.10;46.00;;;;;;5073257;28;19908;-63
2022/06/12 09:12:14;;;;;;;;;;;26.10;46.10;;;;;;5055531;28;19998;-63
2022/06/12 09:14:39;;;;;;;;;;;26.10;46.50;;;;;;5073281;28;20376;-63
2022/06/12 09:17:17;;;;;;;;;;;26.10;46.50;;;;;;5073330;28;19908;-63
2022/06/12 09:19:43;;;;;;;;;;;26.10;46.60;;;;;;5055492;28;20438;-63
2022/06/12 09:22:12;;;;;;;;;;;26.20;46.60;;;;;;5055222;28;19916;-63
2022/06/12 09:24:58;;;;;;;;;;;26.20;46.60;;;;;;5073256;28;19948;-63
2022/06/12 09:27:47;;;;;;;;;;;26.10;46.50;;;;;;5073288;28;19913;-63
2022/06/12 09:30:19;;;;;;;;;;;26.20;46.70;;;;;;5064710;28;19917;-63
2022/06/12 09:32:49;;;;;;;;;;;26.20;46.70;;;;;;5055094;28;19912;-63
2022/06/12 09:35:21;;;;;;;;;;;26.20;46.80;;;;;;5055062;28;19909;-63
2022/06/12 09:40:32;;;;;;;;;;;26.20;46.30;;;;;;5079741;28;19950;-63
2022/06/12 09:43:13;;;;;;;;;;;26.20;46.40;;;;;;5073098;28;19985;-63
2022/06/12 09:45:42;;;;;;;;;;;26.30;46.10;;;;;;5072971;28;19913;-63
2022/06/12 09:48:13;;;;;;;;;;;26.30;46.40;;;;;;5072783;28;19947;-63
2022/06/12 09:50:41;;;;;;;;;;;26.30;46.30;;;;;;5072988;28;19962;-63
2022/06/12 09:53:15;;;;;;;;;;;26.30;46.10;;;;;;5054873;28;19913;-63
2022/06/12 09:55:52;;;;;;;;;;;26.30;46.20;;;;;;5072915;28;19912;-63
2022/06/12 09:58:20;;;;;;;;;;;26.30;46.10;;;;;;5055081;28;20361;-63
2022/06/12 10:00:46;;;;;;;;;;;26.40;45.90;;;;;;5072827;28;19909;-64
2022/06/12 10:03:14;;;;;;;;;;;26.40;46.10;;;;;;5072728;28;20379;-63
2022/06/12 10:05:45;;;;;;;;;;;26.40;46.00;;;;;;5054946;28;19908;-63
2022/06/12 10:08:12;;;;;;;;;;;26.40;46.10;;;;;;5036241;28;19909;-63
2022/06/12 10:10:48;;;;;;;;;;;26.40;45.90;;;;;;5051741;28;19909;-63
2022/06/12 10:13:15;;;;;;;;;;;26.40;45.70;;;;;;5051502;28;20042;-63
2022/06/12 10:15:42;;;;;;;;;;;26.40;45.80;;;;;;5052982;28;19966;-63
2022/06/12 10:18:10;;;;;;;;;;;26.40;45.80;;;;;;5051288;28;19913;-63
2022/06/12 10:20:40;;;;;;;;;;;26.40;45.80;;;;;;5051418;28;19920;-63
2022/06/12 10:23:05;;;;;;;;;;;26.50;45.90;;;;;;5052582;28;19909;-63
2022/06/12 10:25:33;;;;;;;;;;;26.50;45.50;;;;;;5052509;28;20044;-63
2022/06/12 10:28:19;;;;;;;;;;;26.50;45.80;;;;;;5051655;28;19909;-63
2022/06/12 10:31:01;;;;;;;;;;;26.50;45.80;;;;;;5052110;28;19909;-64
2022/06/12 10:33:30;;;;;;;;;;;26.50;45.80;;;;;;5051176;28;20029;-64
2022/06/12 10:35:58;;;;;;;;;;;26.50;46.20;;;;;;5051364;28;19917;-64
2022/06/12 10:38:26;;;;;;;;;;;26.50;46.20;;;;;;5054928;28;19965;-64
2022/06/12 10:40:55;;;;;;;;;;;26.50;46.30;;;;;;5072507;28;19908;-63
2022/06/12 10:43:27;;;;;;;;;;;26.50;46.30;;;;;;5054421;28;20012;-63
2022/06/12 10:46:15;;;;;;;;;;;26.50;46.20;;;;;;5073650;28;19918;-63
2022/06/12 10:48:41;;;;;;;;;;;26.60;46.00;;;;;;5067644;28;19920;-63
2022/06/12 10:51:15;;;;;;;;;;;26.50;46.20;;;;;;5075989;28;20321;-63
2022/06/12 10:53:41;;;;;;;;;;;26.50;46.20;;;;;;5075872;28;19913;-63
2022/06/12 10:56:15;;;;;;;;;;;26.60;46.10;;;;;;5058040;28;19909;-63
2022/06/12 10:58:41;;;;;;;;;;;26.60;46.10;;;;;;5076032;28;20257;-63
2022/06/12 11:01:18;;;;;;;;;;;26.50;45.70;;;;;;5075790;28;19908;-63
2022/06/12 11:03:56;;;;;;;;;;;26.60;45.70;;;;;;5058319;28;19909;-64
2022/06/12 11:06:23;;;;;;;;;;;26.60;45.80;;;;;;5075693;28;20383;-63
2022/06/12 11:08:59;;;;;;;;;;;26.60;46.00;;;;;;5057789;28;20015;-63
2022/06/12 11:11:28;;;;;;;;;;;26.60;46.10;;;;;;5057756;28;20003;-63
2022/06/12 11:14:01;;;;;;;;;;;26.50;45.80;;;;;;5075682;28;19977;-62
2022/06/12 11:16:42;;;;;;;;;;;26.50;46.00;;;;;;5057693;28;19947;-62
2022/06/12 11:19:17;;;;;;;;;;;26.50;46.20;;;;;;5057651;28;19915;-61
2022/06/12 11:21:45;;;;;;;;;;;26.50;46.30;;;;;;5057641;28;19908;-61
2022/06/12 11:24:10;;;;;;;;;;;26.60;46.40;;;;;;5057448;28;19936;-61
2022/06/12 11:26:44;;;;;;;;;;;26.50;46.30;;;;;;5075387;28;20356;-61
2022/06/12 11:29:19;;;;;;;;;;;26.60;45.80;;;;;;5075507;28;19908;-61
2022/06/12 11:32:16;;;;;;;;;;;26.60;46.30;;;;;;5075147;28;20391;-61
2022/06/12 11:34:55;;;;;;;;;;;26.60;46.60;;;;;;5041258;28;19955;-61
2022/06/12 11:37:21;;;;;;;;;;;26.60;45.90;;;;;;5057201;28;19912;-61
2022/06/12 11:39:52;;;;;;;;;;;26.60;45.70;;;;;;5075028;28;19909;-61
2022/06/12 11:42:35;;;;;;;;;;;26.60;45.80;;;;;;5074964;28;20384;-61
2022/06/12 11:45:04;;;;;;;;;;;26.70;45.70;;;;;;5040626;28;20004;-61
2022/06/12 11:47:43;;;;;;;;;;;26.70;45.90;;;;;;5074992;28;20334;-61
2022/06/12 11:50:20;;;;;;;;;;;26.70;46.50;;;;;;5074812;28;19909;-62
2022/06/12 11:52:46;;;;;;;;;;;26.60;46.30;;;;;;5074759;28;19913;-61
2022/06/12 11:55:30;;;;;;;;;;;26.60;46.10;;;;;;5074753;28;20372;-61
2022/06/12 11:57:57;;;;;;;;;;;26.60;46.10;;;;;;5056536;28;19912;-61
2022/06/12 12:00:50;;;;;;;;;;;26.70;46.10;;;;;;5074891;28;20288;-61
2022/06/12 12:03:34;;;;;;;;;;;26.70;45.50;;;;;;5071593;28;19908;-61
2022/06/12 12:06:08;;;;;;;;;;;26.70;45.30;;;;;;5074641;28;20445;-61
2022/06/12 12:08:48;;;;;;;;;;;26.80;45.00;;;;;;5074423;28;19931;-61
2022/06/12 12:11:13;;;;;;;;;;;26.80;45.20;;;;;;5056755;28;20360;-61
2022/06/12 12:13:42;;;;;;;;;;;26.90;45.40;;;;;;5074361;28;19919;-61
2022/06/12 12:16:12;;;;;;;;;;;26.80;45.30;;;;;;5057108;28;19908;-61
2022/06/12 12:18:39;;;;;;;;;;;26.80;45.20;;;;;;5074431;28;20611;-61
2022/06/12 12:21:09;;;;;;;;;;;26.80;45.00;;;;;;5056518;28;19909;-61
2022/06/12 12:23:36;;;;;;;;;;;26.90;45.40;;;;;;5039722;28;19909;-61
2022/06/12 12:26:31;;;;;;;;;;;26.90;45.30;;;;;;5056331;28;19956;-61
2022/06/12 12:29:01;;;;;;;;;;;26.90;44.80;;;;;;5034728;28;19916;-61
2022/06/12 12:31:27;;;;;;;;;;;26.90;44.90;;;;;;5056294;28;19920;-61
2022/06/12 12:33:53;;;;;;;;;;;26.90;45.20;;;;;;5056190;28;20376;-61
2022/06/12 12:41:52;;;;;;;;;;;27.10;45.10;;;;;;5073747;28;19923;-61
2022/06/12 12:44:31;;;;;;;;;;;27.10;44.70;;;;;;5073829;28;19958;-61
2022/06/12 12:46:57;;;;;;;;;;;27.10;44.50;;;;;;5073643;28;19928;-61
2022/06/12 12:49:24;;;;;;;;;;;27.10;44.50;;;;;;5055849;28;19916;-61
2022/06/12 12:51:49;;;;;;;;;;;27.10;44.20;;;;;;5055679;28;19908;-61
2022/06/12 12:54:18;;;;;;;;;;;27.10;44.50;;;;;;5073102;28;21312;-61
2022/06/12 12:56:51;;;;;;;;;;;27.10;44.50;;;;;;5073760;28;20372;-61
2022/06/12 12:59:16;;;;;;;;;;;27.10;44.50;;;;;;5055706;28;19999;-62
2022/06/12 13:01:43;;;;;;;;;;;27.10;44.30;;;;;;5073525;28;19916;-61
2022/06/12 13:04:22;;;;;;;;;;;27.10;44.50;;;;;;5055828;28;20363;-61
2022/06/12 13:07:06;;;;;;;;;;;27.10;44.70;;;;;;5073436;28;20360;-61
2022/06/12 13:09:34;;;;;;;;;;;27.10;44.60;;;;;;5072762;28;20380;-61
2022/06/12 13:12:10;;;;;;;;;;;27.10;45.00;;;;;;5073313;28;19908;-61
2022/06/12 13:14:39;;;;;;;;;;;27.10;45.20;;;;;;5055512;28;19915;-61
2022/06/12 13:17:24;;;;;;;;;;;27.00;45.40;;;;;;5055359;28;19915;-61
2022/06/12 13:19:58;;;;;;;;;;;27.00;45.60;;;;;;5073312;28;19915;-61
2022/06/12 13:22:31;;;;;;;;;;;26.90;45.80;;;;;;5073281;28;19908;-61
2022/06/12 13:24:56;;;;;;;;;;;26.90;45.90;;;;;;5071997;28;19915;-61
2022/06/12 13:27:26;;;;;;;;;;;26.90;46.00;;;;;;5073137;28;19912;-61
2022/06/12 13:29:51;;;;;;;;;;;26.90;46.00;;;;;;5055273;28;19908;-61
2022/06/12 13:32:24;;;;;;;;;;;26.90;46.00;;;;;;5055063;28;19935;-62
2022/06/12 13:34:57;;;;;;;;;;;26.90;45.90;;;;;;5073091;28;19915;-61
2022/06/12 13:37:22;;;;;;;;;;;26.90;45.90;;;;;;5073111;28;19909;-61
2022/06/12 13:39:48;;;;;;;;;;;26.90;45.90;;;;;;5088561;28;19909;-61
2022/06/12 13:42:14;;;;;;;;;;;26.90;46.00;;;;;;5055000;28;19916;-61
2022/06/12 13:44:43;;;;;;;;;;;26.80;46.10;;;;;;5072959;28;19916;-61
2022/06/12 13:47:18;;;;;;;;;;;26.80;46.10;;;;;;5054779;28;19920;-61
2022/06/12 13:49:47;;;;;;;;;;;26.80;46.30;;;;;;5072910;28;20396;-61
2022/06/12 13:52:13;;;;;;;;;;;26.80;46.30;;;;;;5055223;28;19948;-61
2022/06/12 13:54:41;;;;;;;;;;;26.70;46.20;;;;;;5072847;28;19908;-61
2022/06/12 13:57:10;;;;;;;;;;;26.70;46.20;;;;;;5072775;28;19909;-61
2022/06/12 13:59:39;;;;;;;;;;;26.70;46.20;;;;;;5072686;28;19912;-61
2022/06/12 14:02:14;;;;;;;;;;;26.70;46.40;;;;;;5054864;28;20276;-61
2022/06/12 14:04:47;;;;;;;;;;;26.70;46.40;;;;;;5054831;28;19947;-61
2022/06/12 14:07:13;;;;;;;;;;;26.70;46.50;;;;;;5061546;28;20512;-61
2022/06/12 14:09:38;;;;;;;;;;;26.70;46.60;;;;;;5072529;28;19908;-61
2022/06/12 14:12:04;;;;;;;;;;;26.70;46.60;;;;;;5054878;28;20035;-61
2022/06/12 14:14:35;;;;;;;;;;;26.80;46.60;;;;;;5072538;28;20425;-61
2022/06/12 14:17:01;;;;;;;;;;;26.90;46.40;;;;;;5072673;28;19915;-61
2022/06/12 14:19:27;;;;;;;;;;;27.00;46.30;;;;;;5072617;28;20526;-61
2022/06/12 14:22:19;;;;;;;;;;;27.00;46.00;;;;;;5057614;28;19918;-61
2022/06/12 14:24:55;;;;;;;;;;;27.10;45.90;;;;;;5073442;28;19916;-61
2022/06/12 14:27:21;;;;;;;;;;;27.10;46.00;;;;;;5058585;28;19909;-61
2022/06/12 14:29:47;;;;;;;;;;;27.00;46.20;;;;;;5076365;28;19912;-61
2022/06/12 14:32:18;;;;;;;;;;;26.90;46.30;;;;;;5076164;28;20327;-61
2022/06/12 14:34:44;;;;;;;;;;;26.90;46.20;;;;;;5076275;28;19919;-61
2022/06/12 14:37:29;;;;;;;;;;;26.90;46.30;;;;;;5058468;28;19913;-62
2022/06/12 14:39:55;;;;;;;;;;;26.90;46.50;;;;;;5076365;28;20395;-61
2022/06/12 14:42:21;;;;;;;;;;;26.90;46.40;;;;;;5076056;28;19908;-61
2022/06/12 14:44:47;;;;;;;;;;;26.90;46.50;;;;;;5076375;28;19909;-61
2022/06/12 14:47:17;;;;;;;;;;;26.90;46.50;;;;;;5076137;28;19924;-61